Time;durP1;ratioP1;P1;durP2;ratioP2;P2;SDS_P1;SDS_P2;PMS_P1;PMS_P2;Temp;Humidity;BMP_temperature;BMP_pressure;BME280_temperature;BME280_humidity;BME280_pressure;Samples;Min_cycle;Max_cycle;Signal;HPM_P1;HPM_P2
2021/11/16 00:02:08;;;;;;;111.53;98.72;;;7.60;99.90;;;;;;5094906;28;20167;-84
2021/11/16 00:04:34;;;;;;;110.47;98.25;;;7.50;99.90;;;;;;5096338;28;20170;-84
2021/11/16 00:07:01;;;;;;;107.45;83.03;;;7.50;99.90;;;;;;5094731;28;20178;-84
2021/11/16 00:09:26;;;;;;;102.30;76.63;;;7.40;99.90;;;;;;5094599;28;20183;-84
2021/11/16 00:11:52;;;;;;;103.90;69.93;;;7.40;99.90;;;;;;5096045;28;20170;-84
2021/11/16 00:14:21;;;;;;;95.33;58.60;;;7.30;99.90;;;;;;5096416;28;20238;-84
2021/11/16 00:16:47;;;;;;;96.00;55.33;;;7.40;99.90;;;;;;5096288;28;20570;-84
2021/11/16 00:19:15;;;;;;;97.17;61.77;;;7.40;99.90;;;;;;5094539;28;20653;-84
2021/11/16 00:21:46;;;;;;;100.85;67.65;;;7.40;99.90;;;;;;5094283;28;20166;-84
2021/11/16 00:24:18;;;;;;;99.15;64.47;;;7.40;99.90;;;;;;5094980;28;20147;-84
2021/11/16 00:26:45;;;;;;;101.13;62.92;;;7.40;99.90;;;;;;5094452;28;20751;-84
2021/11/16 00:29:12;;;;;;;101.95;74.30;;;7.50;99.90;;;;;;5094306;28;20187;-84
2021/11/16 00:31:37;;;;;;;105.10;78.90;;;7.50;99.90;;;;;;5096135;28;20163;-84
2021/11/16 00:34:04;;;;;;;106.03;80.43;;;7.50;99.90;;;;;;5095509;28;20166;-84
2021/11/16 00:36:31;;;;;;;103.22;74.80;;;7.50;99.90;;;;;;5095546;28;20232;-84
2021/11/16 00:38:57;;;;;;;102.72;74.07;;;7.40;99.90;;;;;;5094111;28;20193;-84
2021/11/16 00:41:23;;;;;;;110.53;96.20;;;7.40;99.90;;;;;;5094628;28;20249;-84
2021/11/16 00:43:49;;;;;;;110.70;85.80;;;7.50;99.90;;;;;;5094173;28;20661;-84
2021/11/16 00:46:15;;;;;;;108.22;96.43;;;7.50;99.90;;;;;;5094095;28;20221;-84
2021/11/16 00:48:41;;;;;;;113.30;101.33;;;7.50;99.90;;;;;;5094533;28;20191;-84
2021/11/16 00:51:07;;;;;;;114.60;99.87;;;7.60;99.90;;;;;;5094401;28;20651;-84
2021/11/16 00:53:36;;;;;;;111.65;92.90;;;7.50;99.90;;;;;;5166986;22;20249;-88
2021/11/16 00:56:05;;;;;;;103.57;79.75;;;7.50;99.90;;;;;;5094361;28;20167;-87
2021/11/16 00:58:30;;;;;;;106.68;88.28;;;7.40;99.90;;;;;;5095614;28;20175;-88
2021/11/16 01:00:57;;;;;;;111.70;98.50;;;7.50;99.90;;;;;;5094749;28;20242;-87
2021/11/16 01:03:25;;;;;;;106.32;91.65;;;7.50;99.90;;;;;;5094545;28;20558;-87
2021/11/16 01:05:55;;;;;;;107.90;91.40;;;7.60;99.90;;;;;;5093764;28;20210;-87
2021/11/16 01:08:22;;;;;;;108.03;91.22;;;7.50;99.90;;;;;;5094662;28;20206;-88
2021/11/16 01:10:48;;;;;;;104.78;79.25;;;7.50;99.90;;;;;;5094746;28;20245;-88
2021/11/16 01:13:17;;;;;;;109.43;94.07;;;7.40;99.90;;;;;;5094615;28;20217;-87
2021/11/16 01:15:44;;;;;;;99.28;64.80;;;7.50;99.90;;;;;;5095103;28;20197;-88
2021/11/16 01:18:10;;;;;;;99.47;59.42;;;7.30;99.90;;;;;;5094931;28;20582;-88
2021/11/16 01:20:37;;;;;;;96.97;60.00;;;7.30;99.90;;;;;;5094922;28;20170;-88
2021/11/16 01:23:05;;;;;;;97.20;65.25;;;7.30;99.90;;;;;;5093765;28;20171;-88
2021/11/16 01:25:36;;;;;;;100.75;67.05;;;7.30;99.90;;;;;;5094640;28;20163;-87
2021/11/16 01:28:12;;;;;;;105.22;63.53;;;7.30;99.90;;;;;;5095313;28;20536;-87
2021/11/16 01:30:46;;;;;;;101.25;65.95;;;7.40;99.90;;;;;;5095280;28;20143;-87
2021/11/16 01:33:20;;;;;;;100.40;64.72;;;7.30;99.90;;;;;;5093235;28;20216;-88
2021/11/16 01:35:47;;;;;;;99.40;61.50;;;7.20;99.90;;;;;;5096541;28;20231;-87
2021/11/16 01:38:19;;;;;;;123.63;110.22;;;7.30;99.90;;;;;;5097518;28;20198;-87
2021/11/16 01:40:46;;;;;;;121.25;106.63;;;7.20;99.90;;;;;;5098201;28;20159;-87
2021/11/16 01:43:13;;;;;;;121.22;101.85;;;7.10;99.90;;;;;;5098139;28;20172;-87
2021/11/16 01:45:41;;;;;;;122.32;107.05;;;7.10;99.90;;;;;;5097943;28;20175;-87
2021/11/16 01:48:08;;;;;;;135.77;122.20;;;7.20;99.90;;;;;;5098628;28;20484;-87
2021/11/16 01:50:35;;;;;;;99.53;61.42;;;7.10;99.90;;;;;;5097711;28;20565;-87
2021/11/16 01:53:01;;;;;;;107.22;85.82;;;7.20;99.90;;;;;;5097660;28;20183;-88
2021/11/16 01:55:27;;;;;;;131.90;117.63;;;7.20;99.90;;;;;;5098750;28;20691;-87
2021/11/16 01:57:54;;;;;;;122.37;103.90;;;7.20;99.90;;;;;;5098802;28;20493;-87
2021/11/16 02:00:31;;;;;;;101.32;67.45;;;7.20;99.90;;;;;;5099128;28;20432;-87
2021/11/16 02:02:58;;;;;;;106.25;73.97;;;7.30;99.90;;;;;;5098999;28;20147;-87
2021/11/16 02:05:46;;;;;;;103.60;60.17;;;7.30;99.90;;;;;;5098502;28;20208;-87
2021/11/16 02:08:14;;;;;;;100.78;58.97;;;7.30;99.90;;;;;;5096976;28;20650;-87
2021/11/16 02:10:43;;;;;;;102.95;62.08;;;7.30;99.90;;;;;;5097998;28;20244;-88
2021/11/16 02:13:09;;;;;;;102.38;69.03;;;7.30;99.90;;;;;;5097964;28;20245;-87
2021/11/16 02:15:37;;;;;;;102.38;71.13;;;7.30;99.90;;;;;;5098031;28;20246;-87
2021/11/16 02:18:08;;;;;;;99.45;56.20;;;7.30;99.90;;;;;;5097452;28;20195;-88
2021/11/16 02:20:36;;;;;;;113.20;91.22;;;7.20;99.90;;;;;;5101301;28;20171;-88
2021/11/16 02:23:03;;;;;;;99.30;61.92;;;7.20;99.90;;;;;;5096149;28;20254;-88
2021/11/16 02:25:29;;;;;;;105.93;70.13;;;7.20;99.90;;;;;;5097517;28;20212;-87
2021/11/16 02:27:55;;;;;;;119.63;106.63;;;7.20;99.90;;;;;;5096134;28;20167;-87
2021/11/16 02:30:23;;;;;;;99.80;66.35;;;7.10;99.90;;;;;;5095972;28;20475;-87
2021/11/16 02:32:49;;;;;;;102.45;69.82;;;7.30;99.90;;;;;;5096162;28;20195;-87
2021/11/16 02:35:19;;;;;;;104.75;78.40;;;7.20;99.90;;;;;;5097337;28;20568;-87
2021/11/16 02:37:46;;;;;;;101.85;68.82;;;7.20;99.90;;;;;;5095876;28;20199;-87
2021/11/16 02:40:13;;;;;;;102.85;60.58;;;7.20;99.90;;;;;;5097306;28;20191;-87
2021/11/16 02:42:39;;;;;;;101.97;70.25;;;7.30;99.90;;;;;;5097085;28;20225;-88
2021/11/16 02:45:06;;;;;;;104.05;67.88;;;7.20;99.90;;;;;;5095667;28;20209;-88
2021/11/16 02:47:34;;;;;;;102.82;71.63;;;7.30;99.90;;;;;;5096126;28;20511;-88
2021/11/16 02:50:00;;;;;;;111.70;82.43;;;7.30;99.90;;;;;;5096830;28;20202;-87
2021/11/16 02:52:26;;;;;;;120.17;104.43;;;7.30;99.90;;;;;;5095937;28;20183;-87
2021/11/16 02:54:52;;;;;;;117.25;93.30;;;7.20;99.90;;;;;;5097227;28;20167;-87
2021/11/16 02:57:19;;;;;;;102.68;66.18;;;7.20;99.90;;;;;;5095795;28;20655;-87
2021/11/16 02:59:45;;;;;;;99.20;63.15;;;7.20;99.90;;;;;;5096184;28;20275;-87
2021/11/16 03:02:11;;;;;;;104.50;72.03;;;7.20;99.90;;;;;;5097415;28;20171;-87
2021/11/16 03:04:43;;;;;;;107.85;78.25;;;7.20;99.90;;;;;;5097523;28;20437;-87
2021/11/16 03:07:10;;;;;;;110.85;83.07;;;7.20;99.90;;;;;;5096841;28;20155;-87
2021/11/16 03:09:36;;;;;;;104.40;76.25;;;7.20;99.90;;;;;;5096814;28;20175;-87
2021/11/16 03:12:03;;;;;;;117.13;104.43;;;7.20;99.90;;;;;;5096929;28;20205;-88
2021/11/16 03:14:30;;;;;;;113.57;83.65;;;7.20;99.90;;;;;;5095509;28;20174;-88
2021/11/16 03:16:56;;;;;;;110.00;83.88;;;7.20;99.90;;;;;;5097080;28;20685;-88
2021/11/16 03:19:23;;;;;;;121.43;107.20;;;7.20;99.90;;;;;;5096704;28;20191;-87
2021/11/16 03:21:56;;;;;;;131.48;114.75;;;7.10;99.90;;;;;;5096575;28;20160;-87
2021/11/16 03:24:29;;;;;;;111.85;86.45;;;7.20;99.90;;;;;;5097286;28;20622;-87
2021/11/16 03:26:55;;;;;;;99.90;58.88;;;7.30;99.90;;;;;;5096862;28;20691;-87
2021/11/16 03:29:24;;;;;;;98.87;57.13;;;7.30;99.90;;;;;;5096374;28;20226;-88
2021/11/16 03:32:06;;;;;;;103.82;66.70;;;7.40;99.90;;;;;;5095433;28;20413;-87
2021/11/16 03:34:32;;;;;;;99.47;57.88;;;7.40;99.90;;;;;;5095257;28;20163;-87
2021/11/16 03:36:58;;;;;;;104.78;57.90;;;7.30;99.90;;;;;;5096661;28;20183;-88
2021/11/16 03:39:24;;;;;;;94.47;48.50;;;7.40;99.90;;;;;;5096986;28;20171;-87
2021/11/16 03:41:50;;;;;;;100.40;57.20;;;7.30;99.90;;;;;;5095586;28;20458;-87
2021/11/16 03:44:16;;;;;;;98.60;59.47;;;7.30;99.90;;;;;;5096875;28;20155;-87
2021/11/16 03:46:42;;;;;;;102.13;62.87;;;7.30;99.90;;;;;;5096191;28;20592;-87
2021/11/16 03:49:12;;;;;;;101.35;66.63;;;7.30;99.90;;;;;;5095467;28;20425;-87
2021/11/16 03:51:40;;;;;;;98.97;54.30;;;7.30;99.90;;;;;;5094953;28;20171;-87
2021/11/16 03:54:06;;;;;;;103.68;67.30;;;7.40;99.90;;;;;;5097765;28;20143;-88
2021/11/16 03:56:38;;;;;;;103.05;71.13;;;7.40;99.90;;;;;;5095839;28;20637;-88
2021/11/16 03:59:04;;;;;;;102.45;74.95;;;7.40;99.90;;;;;;5096361;28;20556;-87
2021/11/16 04:01:30;;;;;;;109.03;77.40;;;7.30;99.90;;;;;;5095968;28;20166;-88
2021/11/16 04:03:58;;;;;;;102.77;69.17;;;7.30;99.90;;;;;;5095970;28;20882;-87
2021/11/16 04:06:27;;;;;;;102.13;66.70;;;7.30;99.90;;;;;;5094799;28;20409;-87
2021/11/16 04:08:53;;;;;;;98.43;52.63;;;7.30;99.90;;;;;;5095740;28;20305;-88
2021/11/16 04:11:19;;;;;;;93.37;50.63;;;7.30;99.90;;;;;;5095699;28;20682;-88
2021/11/16 04:13:47;;;;;;;95.30;51.37;;;7.40;99.90;;;;;;5095623;28;20240;-88
2021/11/16 04:16:13;;;;;;;100.30;54.03;;;7.30;99.90;;;;;;5094383;28;20408;-87
2021/11/16 04:18:39;;;;;;;102.07;58.03;;;7.20;99.90;;;;;;5095624;28;20179;-87
2021/11/16 04:21:05;;;;;;;101.50;61.03;;;7.30;99.90;;;;;;5096085;28;20401;-87
2021/11/16 04:23:31;;;;;;;95.75;50.05;;;7.30;99.90;;;;;;5095237;28;20162;-87
2021/11/16 04:25:57;;;;;;;95.80;55.07;;;7.30;99.90;;;;;;5095950;28;20560;-87
2021/11/16 04:28:23;;;;;;;104.90;63.17;;;7.40;99.90;;;;;;5094997;28;20507;-87
2021/11/16 04:30:50;;;;;;;96.90;52.55;;;7.40;99.90;;;;;;5093828;28;20266;-88
2021/11/16 04:33:18;;;;;;;101.80;59.05;;;7.30;99.90;;;;;;5095115;28;20266;-88
2021/11/16 04:35:48;;;;;;;103.40;57.60;;;7.30;99.90;;;;;;5094003;28;20171;-88
2021/11/16 04:38:16;;;;;;;101.80;66.45;;;7.30;99.90;;;;;;5093556;28;20236;-88
2021/11/16 04:40:44;;;;;;;97.50;54.08;;;7.40;99.90;;;;;;5093911;28;20167;-88
2021/11/16 04:43:14;;;;;;;103.47;65.65;;;7.30;99.90;;;;;;5093736;28;20634;-88
2021/11/16 04:45:41;;;;;;;97.35;57.10;;;7.30;99.90;;;;;;5096004;28;20163;-88
2021/11/16 04:48:20;;;;;;;95.55;53.80;;;7.20;99.90;;;;;;5093709;28;20254;-87
2021/11/16 04:51:42;;;;;;;108.05;75.18;;;7.30;99.90;;;;;;5095137;28;20155;-87
2021/11/16 05:04:15;;;;;;;99.00;54.75;;;7.40;99.90;;;;;;5094876;28;20204;-88
2021/11/16 05:06:43;;;;;;;93.97;50.40;;;7.40;99.90;;;;;;5094995;28;20163;-88
2021/11/16 05:09:10;;;;;;;94.93;50.30;;;7.40;99.90;;;;;;5095020;28;20496;-87
2021/11/16 05:11:36;;;;;;;101.70;60.92;;;7.40;99.90;;;;;;5094001;28;20163;-87
2021/11/16 05:14:02;;;;;;;103.47;65.40;;;7.40;99.90;;;;;;5094318;28;20182;-88
2021/11/16 05:16:31;;;;;;;104.93;80.88;;;7.40;99.90;;;;;;5100875;28;20417;-88
2021/11/16 05:18:57;;;;;;;104.07;58.35;;;7.50;99.90;;;;;;5083630;28;20187;-88
2021/11/16 05:21:23;;;;;;;97.77;56.90;;;7.50;99.90;;;;;;5100567;28;20661;-87
2021/11/16 05:23:50;;;;;;;99.27;62.57;;;7.40;99.90;;;;;;5101813;28;20634;-88
2021/11/16 05:26:16;;;;;;;103.63;61.65;;;7.40;99.90;;;;;;5101085;28;20967;-88
2021/11/16 05:28:42;;;;;;;104.22;66.25;;;7.40;99.90;;;;;;5101431;28;20242;-88
2021/11/16 05:31:07;;;;;;;102.63;63.90;;;7.40;99.90;;;;;;5101116;28;20194;-88
2021/11/16 05:33:36;;;;;;;96.97;57.63;;;7.50;99.90;;;;;;5099392;28;20188;-88
2021/11/16 05:36:02;;;;;;;98.05;54.30;;;7.50;99.90;;;;;;5100164;28;20254;-88
2021/11/16 05:38:36;;;;;;;102.13;67.90;;;7.50;99.90;;;;;;5100547;28;20222;-88
2021/11/16 05:41:06;;;;;;;101.60;59.60;;;7.50;99.90;;;;;;5098822;28;20167;-88
2021/11/16 05:43:33;;;;;;;96.47;48.78;;;7.50;99.90;;;;;;5100776;28;20176;-88
2021/11/16 05:46:00;;;;;;;95.22;49.45;;;7.60;99.90;;;;;;5100908;28;20167;-87
2021/11/16 05:48:33;;;;;;;101.47;62.25;;;7.50;99.90;;;;;;5098492;28;20316;-88
2021/11/16 05:50:59;;;;;;;99.75;65.65;;;7.50;99.90;;;;;;5099008;28;20255;-88
2021/11/16 05:53:25;;;;;;;100.47;60.50;;;7.50;99.90;;;;;;5098429;28;20190;-88
2021/11/16 05:55:50;;;;;;;99.40;62.47;;;7.50;99.90;;;;;;5100186;28;20167;-88
2021/11/16 05:58:19;;;;;;;105.83;69.33;;;7.50;99.90;;;;;;5098991;28;20194;-88
2021/11/16 06:01:03;;;;;;;103.10;62.72;;;7.50;99.90;;;;;;5099817;28;20397;-88
2021/11/16 06:03:57;;;;;;;102.00;61.28;;;7.60;99.90;;;;;;5098341;28;20185;-88
2021/11/16 06:06:26;;;;;;;105.28;56.50;;;7.60;99.90;;;;;;5099090;28;20167;-88
2021/11/16 06:11:46;;;;;;;100.90;62.70;;;7.50;99.90;;;;;;5652700;22;20225;-88
2021/11/16 06:14:50;;;;;;;105.47;66.13;;;7.50;99.90;;;;;;5096853;28;20219;-88
2021/11/16 06:17:16;;;;;;;104.85;56.92;;;7.50;99.90;;;;;;5096530;28;20286;-88
2021/11/16 06:19:45;;;;;;;97.27;51.30;;;7.50;99.90;;;;;;5097338;28;20606;-88
2021/11/16 06:22:10;;;;;;;105.82;66.75;;;7.50;99.90;;;;;;5097975;28;20707;-88
2021/11/16 06:24:39;;;;;;;107.93;73.40;;;7.50;99.90;;;;;;5097951;28;20254;-87
2021/11/16 06:27:11;;;;;;;105.97;76.40;;;7.50;99.90;;;;;;5097502;28;20177;-88
2021/11/16 06:29:37;;;;;;;114.13;76.20;;;7.50;99.90;;;;;;5096447;28;20187;-88
2021/11/16 06:32:06;;;;;;;107.07;66.83;;;7.50;99.90;;;;;;5097391;28;20167;-86
2021/11/16 06:34:31;;;;;;;118.53;94.72;;;7.50;99.90;;;;;;5098447;28;20468;-86
2021/11/16 06:36:57;;;;;;;151.70;136.23;;;7.50;99.90;;;;;;5097861;28;20263;-86
2021/11/16 06:39:23;;;;;;;154.57;139.70;;;7.50;99.90;;;;;;5097404;28;20187;-87
2021/11/16 06:41:49;;;;;;;119.90;106.87;;;7.50;99.90;;;;;;5096836;28;20162;-88
2021/11/16 06:44:18;;;;;;;141.50;127.20;;;7.50;99.90;;;;;;5097310;28;20460;-88
2021/11/16 06:46:45;;;;;;;176.48;160.52;;;7.60;99.90;;;;;;5096109;28;20258;-87
2021/11/16 06:49:11;;;;;;;205.30;188.75;;;7.60;99.90;;;;;;5095708;28;20183;-88
2021/11/16 06:54:17;;;;;;;227.05;209.90;;;7.50;99.90;;;;;;5056080;28;20197;-85
2021/11/16 06:56:49;;;;;;;238.80;221.60;;;7.60;99.90;;;;;;5057411;28;20366;-85
2021/11/16 06:59:20;;;;;;;243.60;225.48;;;7.50;99.90;;;;;;5067170;28;20540;-85
2021/11/16 07:01:46;;;;;;;224.23;207.48;;;7.40;99.90;;;;;;5077159;28;20156;-85
2021/11/16 07:04:15;;;;;;;226.52;209.02;;;7.50;99.90;;;;;;5075718;28;20606;-85
2021/11/16 07:06:56;;;;;;;229.93;213.13;;;7.50;99.90;;;;;;5075728;28;20516;-85
2021/11/16 07:09:22;;;;;;;214.45;198.05;;;7.50;99.90;;;;;;5076997;28;20203;-85
2021/11/16 07:11:55;;;;;;;211.35;194.40;;;7.40;99.90;;;;;;5077512;28;20168;-86
2021/11/16 07:14:42;;;;;;;268.08;249.50;;;7.50;99.90;;;;;;5076314;28;20168;-86
2021/11/16 07:17:16;;;;;;;265.42;246.77;;;7.40;99.90;;;;;;5077112;28;20270;-86
2021/11/16 07:19:48;;;;;;;214.30;197.80;;;7.50;99.90;;;;;;5077943;28;20179;-86
2021/11/16 07:22:27;;;;;;;208.77;192.73;;;7.50;99.90;;;;;;5078407;28;20144;-86
2021/11/16 07:25:03;;;;;;;210.38;194.38;;;7.50;99.90;;;;;;5078036;28;20152;-86
2021/11/16 07:27:38;;;;;;;223.70;207.23;;;7.50;99.90;;;;;;5077268;28;20618;-86
2021/11/16 07:30:12;;;;;;;249.35;232.27;;;7.40;99.90;;;;;;5077081;28;20648;-85
2021/11/16 07:32:48;;;;;;;237.68;220.52;;;7.40;99.90;;;;;;5076995;28;20202;-85
2021/11/16 07:35:35;;;;;;;199.63;184.27;;;7.50;99.90;;;;;;5076478;28;20243;-86
2021/11/16 07:38:23;;;;;;;203.52;187.85;;;7.40;99.90;;;;;;5077113;28;20521;-85
2021/11/16 07:41:08;;;;;;;217.48;200.60;;;7.40;99.90;;;;;;5076776;28;20197;-86
2021/11/16 07:43:39;;;;;;;214.90;198.77;;;7.40;99.90;;;;;;5077026;28;20152;-85
2021/11/16 07:47:17;;;;;;;218.40;202.52;;;7.50;99.90;;;;;;5076543;28;20175;-85
2021/11/16 07:49:42;;;;;;;215.07;199.15;;;7.50;99.90;;;;;;5065601;28;20207;-85
2021/11/16 07:52:50;;;;;;;182.32;167.73;;;7.40;99.90;;;;;;5076583;28;20179;-86
2021/11/16 07:55:28;;;;;;;176.43;161.73;;;7.40;99.90;;;;;;5014802;28;20174;-86
2021/11/16 08:03:57;;;;;;;159.20;145.40;;;7.30;99.90;;;;;;5054992;28;20168;-86
2021/11/16 08:06:34;;;;;;;148.70;134.60;;;7.30;99.90;;;;;;5055780;28;20175;-86
2021/11/16 08:09:47;;;;;;;177.82;163.20;;;7.30;99.90;;;;;;5084333;28;20209;-87
2021/11/16 08:16:37;;;;;;;158.88;144.77;;;7.40;99.90;;;;;;5092601;28;20175;-86
2021/11/16 08:19:21;;;;;;;194.13;178.98;;;7.40;99.90;;;;;;5090435;28;20206;-85
2021/11/16 08:21:57;;;;;;;;;;;;;;;;;;;;;
2021/11/16 08:24:44;;;;;;;187.02;172.18;;;7.50;99.90;;;;;;5097851;28;20227;-85
2021/11/16 08:27:49;;;;;;;208.15;192.52;;;7.50;99.90;;;;;;5095690;28;20178;-86
2021/11/16 08:30:35;;;;;;;173.98;159.57;;;7.50;99.90;;;;;;5095218;28;20187;-86
2021/11/16 08:33:24;;;;;;;182.05;167.07;;;7.50;99.90;;;;;;5094932;28;20177;-85
2021/11/16 08:35:54;;;;;;;177.85;163.38;;;7.50;99.90;;;;;;5095567;28;20179;-85
2021/11/16 08:38:50;;;;;;;138.88;125.07;;;7.50;99.90;;;;;;5095679;28;20213;-86
2021/11/16 08:41:47;;;;;;;186.15;170.65;;;7.50;99.90;;;;;;5095507;28;20170;-86
2021/11/16 08:44:54;;;;;;;179.35;163.40;;;7.60;99.90;;;;;;5096999;28;20175;-85
2021/11/16 08:47:53;;;;;;;;;;;;;;;;;;;;;
2021/11/16 08:50:35;;;;;;;178.10;162.70;;;7.60;99.90;;;;;;5095830;28;20361;-86
2021/11/16 08:53:11;;;;;;;147.63;133.77;;;7.60;99.90;;;;;;5095556;28;20174;-85
2021/11/16 08:55:55;;;;;;;;;;;;;;;;;;;;;
2021/11/16 08:58:28;;;;;;;211.30;195.65;;;7.60;99.90;;;;;;5095380;28;20195;-85
2021/11/16 09:01:01;;;;;;;179.88;164.55;;;7.70;99.90;;;;;;5094310;28;20270;-85
2021/11/16 09:03:42;;;;;;;161.93;147.60;;;7.70;99.90;;;;;;5095126;28;20159;-85
2021/11/16 09:06:52;;;;;;;151.27;137.25;;;7.70;99.90;;;;;;5096028;28;20143;-85
2021/11/16 09:09:27;;;;;;;147.93;133.50;;;7.80;99.90;;;;;;5094787;28;20190;-85
2021/11/16 09:12:15;;;;;;;132.85;119.38;;;7.70;99.90;;;;;;5094270;28;20212;-85
2021/11/16 09:14:56;;;;;;;147.85;133.35;;;7.70;99.90;;;;;;5095266;28;20155;-85
2021/11/16 09:17:31;;;;;;;145.10;131.15;;;7.70;99.90;;;;;;5095401;28;20232;-84
2021/11/16 09:20:20;;;;;;;169.18;154.30;;;7.60;99.90;;;;;;5093966;28;20190;-85
2021/11/16 09:22:51;;;;;;;193.82;178.23;;;7.80;99.90;;;;;;5095338;28;20144;-83
2021/11/16 09:25:44;;;;;;;187.75;170.90;;;7.90;99.90;;;;;;5095243;28;20649;-84
2021/11/16 09:28:34;;;;;;;151.30;137.07;;;7.90;99.90;;;;;;5094201;28;20573;-84
2021/11/16 09:31:33;;;;;;;164.50;149.95;;;7.90;99.90;;;;;;5095335;28;20154;-83
2021/11/16 09:34:28;;;;;;;203.68;187.43;;;7.90;99.90;;;;;;5095705;28;20161;-84
2021/11/16 09:39:57;;;;;;;193.82;178.52;;;8.00;99.90;;;;;;5095845;22;20574;-84
2021/11/16 09:42:39;;;;;;;189.45;173.85;;;8.00;99.90;;;;;;5095999;28;20159;-85
2021/11/16 09:45:16;;;;;;;186.98;172.25;;;8.00;99.90;;;;;;5095502;28;20166;-84
2021/11/16 09:47:45;;;;;;;183.23;168.65;;;8.00;99.90;;;;;;5094744;28;20642;-83
2021/11/16 09:50:23;;;;;;;228.55;211.50;;;8.00;99.90;;;;;;5094465;28;20233;-84
2021/11/16 09:52:52;;;;;;;210.32;194.70;;;8.00;99.90;;;;;;5095697;28;20139;-84
2021/11/16 09:55:41;;;;;;;173.77;159.60;;;8.00;99.90;;;;;;5095842;28;20161;-84
2021/11/16 09:58:23;;;;;;;187.95;173.27;;;8.00;99.90;;;;;;5098549;28;20203;-84
2021/11/16 10:00:52;;;;;;;207.88;192.30;;;8.00;99.90;;;;;;5083068;28;20231;-84
2021/11/16 10:03:21;;;;;;;197.85;182.25;;;8.00;99.90;;;;;;5098143;28;20258;-84
2021/11/16 10:06:17;;;;;;;185.77;171.30;;;8.00;99.90;;;;;;5097499;28;20225;-83
2021/11/16 10:08:57;;;;;;;161.80;148.15;;;8.10;99.90;;;;;;5095989;28;20187;-83
2021/11/16 10:11:26;;;;;;;172.50;158.25;;;8.10;99.90;;;;;;5097370;28;20242;-84
2021/11/16 10:14:36;;;;;;;143.68;130.57;;;8.10;99.90;;;;;;5099688;28;20175;-83
2021/11/16 10:17:05;;;;;;;174.88;160.38;;;8.10;99.90;;;;;;5077505;28;20206;-84
2021/11/16 10:20:06;;;;;;;169.23;155.23;;;8.10;99.90;;;;;;5099640;28;20203;-85
2021/11/16 10:22:47;;;;;;;177.75;163.13;;;8.10;99.90;;;;;;5093489;28;20515;-85
2021/11/16 10:25:24;;;;;;;196.00;181.20;;;8.20;99.90;;;;;;5098960;28;20175;-85
2021/11/16 10:27:53;;;;;;;208.02;192.18;;;8.10;99.90;;;;;;5099193;28;20193;-84
2021/11/16 10:30:33;;;;;;;189.07;174.63;;;8.10;99.90;;;;;;5099056;28;20262;-85
2021/11/16 10:33:40;;;;;;;181.90;167.55;;;8.00;99.90;;;;;;5099333;28;20164;-84
2021/11/16 10:36:30;;;;;;;210.95;195.18;;;8.00;99.90;;;;;;5099856;28;20150;-85
2021/11/16 10:39:32;;;;;;;172.15;158.13;;;8.20;99.90;;;;;;5099379;28;20240;-84
2021/11/16 10:42:14;;;;;;;171.45;157.50;;;8.10;99.90;;;;;;5089310;28;20598;-85
2021/11/16 10:45:22;;;;;;;206.10;190.40;;;8.00;99.90;;;;;;5097998;28;20171;-85
2021/11/16 10:48:12;;;;;;;121.38;109.07;;;8.20;99.90;;;;;;5099545;28;20155;-86
2021/11/16 10:54:45;;;;;;;116.88;104.88;;;8.30;99.90;;;;;;5017035;28;20166;-86
2021/11/16 10:58:21;;;;;;;127.03;114.35;;;8.20;99.90;;;;;;5073677;28;20242;-85
2021/11/16 11:00:58;;;;;;;108.70;85.90;;;8.10;99.90;;;;;;5085538;28;20262;-84
2021/11/16 11:04:12;;;;;;;105.28;89.57;;;8.20;99.90;;;;;;5099813;28;20679;-86
2021/11/16 11:06:53;;;;;;;96.93;65.45;;;8.20;99.90;;;;;;5098416;28;20159;-86
2021/11/16 11:09:29;;;;;;;140.88;127.75;;;8.20;99.90;;;;;;5097997;28;20217;-86
2021/11/16 11:12:38;;;;;;;179.88;165.07;;;8.10;99.90;;;;;;5098854;28;20178;-86
2021/11/16 11:16:13;;;;;;;128.88;116.63;;;7.90;99.90;;;;;;5039912;28;20698;-84
2021/11/16 11:19:30;;;;;;;112.15;100.22;;;8.00;99.90;;;;;;5030561;28;20694;-84
2021/11/16 11:22:42;;;;;;;90.00;50.50;;;8.10;99.90;;;;;;5038368;28;20297;-84
2021/11/16 11:28:29;;;;;;;90.05;53.97;;;8.20;99.90;;;;;;5056260;28;20156;-85
2021/11/16 11:35:01;;;;;;;;;;;;;;;;;;;;;
2021/11/16 11:41:04;;;;;;;84.70;41.97;;;8.20;99.90;;;;;;5058217;28;20219;-85
2021/11/16 11:44:45;;;;;;;83.22;42.92;;;8.20;99.90;;;;;;5057390;28;20177;-85
2021/11/16 11:47:20;;;;;;;86.82;49.55;;;8.20;99.90;;;;;;5077490;28;20215;-85
2021/11/16 11:57:19;;;;;;;128.35;115.68;;;7.80;99.90;;;;;;5080049;28;20203;-85
2021/11/16 12:00:27;;;;;;;211.90;196.57;;;7.80;99.90;;;;;;5098946;28;20194;-85
2021/11/16 12:17:13;;;;;;;;;;;;;;;;;;;;;
2021/11/16 12:24:26;;;;;;;143.15;130.15;;;8.00;99.90;;;;;;5054490;28;20184;-84
2021/11/16 12:27:35;;;;;;;157.02;143.32;;;7.90;99.90;;;;;;4998278;28;20186;-84
2021/11/16 12:30:56;;;;;;;139.43;126.82;;;7.80;99.90;;;;;;4975177;28;20359;-86
2021/11/16 12:54:19;;;;;;;100.78;87.93;;;8.00;99.90;;;;;;5203413;22;20368;-87
2021/11/16 12:56:57;;;;;;;98.78;80.80;;;8.00;99.90;;;;;;5092557;28;20230;-87
2021/11/16 12:59:32;;;;;;;103.82;86.75;;;8.00;99.90;;;;;;5093865;28;20209;-87
2021/11/16 13:02:19;;;;;;;99.05;77.68;;;7.90;99.90;;;;;;5092287;28;20253;-87
2021/11/16 13:04:51;;;;;;;95.05;77.40;;;7.90;99.90;;;;;;5092424;28;20163;-87
2021/11/16 13:07:25;;;;;;;95.88;62.83;;;8.00;99.90;;;;;;5093863;28;20182;-87
2021/11/16 13:10:08;;;;;;;89.40;53.83;;;8.00;99.90;;;;;;5093808;28;20182;-87
2021/11/16 13:12:47;;;;;;;91.35;47.38;;;8.00;99.90;;;;;;5092148;28;20661;-87
2021/11/16 13:15:27;;;;;;;86.07;46.28;;;8.00;99.90;;;;;;5092125;28;20182;-87
2021/11/16 13:18:08;;;;;;;86.57;44.72;;;8.00;99.90;;;;;;5093688;28;20174;-87
2021/11/16 13:21:00;;;;;;;89.88;54.55;;;8.00;99.90;;;;;;5092864;28;20196;-87
2021/11/16 13:23:30;;;;;;;90.20;53.90;;;8.00;99.90;;;;;;5093488;28;20140;-88
2021/11/16 13:26:04;;;;;;;86.45;45.83;;;8.00;99.90;;;;;;5092022;28;20169;-87
2021/11/16 13:28:55;;;;;;;89.28;51.20;;;8.10;99.90;;;;;;5093179;28;20274;-88
2021/11/16 13:31:20;;;;;;;89.40;54.38;;;8.10;99.90;;;;;;5094103;28;20193;-87
2021/11/16 13:33:57;;;;;;;88.27;46.97;;;8.10;99.90;;;;;;5097455;28;20171;-87
2021/11/16 13:36:39;;;;;;;87.95;52.60;;;8.00;99.90;;;;;;5098428;28;20170;-87
2021/11/16 13:39:14;;;;;;;89.35;53.97;;;8.00;99.90;;;;;;5097489;28;20265;-87
2021/11/16 13:42:14;;;;;;;91.07;51.70;;;8.00;99.90;;;;;;5097989;28;20143;-88
2021/11/16 13:45:21;;;;;;;88.45;52.90;;;8.00;99.90;;;;;;5097676;28;20146;-87
2021/11/16 13:47:49;;;;;;;94.82;69.38;;;8.00;99.90;;;;;;5097648;28;20191;-87
2021/11/16 13:50:28;;;;;;;191.30;176.48;;;8.00;99.90;;;;;;5097678;28;20270;-87
2021/11/16 13:53:03;;;;;;;98.78;82.03;;;8.00;99.90;;;;;;5096968;28;20649;-87
2021/11/16 13:55:44;;;;;;;101.18;83.07;;;8.00;99.90;;;;;;5095887;28;20174;-87
2021/11/16 13:58:14;;;;;;;91.13;62.15;;;8.00;99.90;;;;;;5097074;28;20538;-87
2021/11/16 14:03:39;;;;;;;86.50;47.05;;;7.90;99.90;;;;;;5097167;28;20155;-87
2021/11/16 14:06:05;;;;;;;89.97;52.47;;;7.90;99.90;;;;;;5096936;28;20189;-88
2021/11/16 14:08:33;;;;;;;88.30;49.53;;;7.90;99.90;;;;;;5095933;28;20649;-88
2021/11/16 14:11:06;;;;;;;88.03;49.63;;;7.90;99.90;;;;;;5095889;28;20174;-88
2021/11/16 14:13:46;;;;;;;89.88;56.95;;;7.90;99.90;;;;;;5096152;28;20206;-87
2021/11/16 14:16:21;;;;;;;87.50;48.53;;;7.90;99.90;;;;;;5096801;28;20170;-87
2021/11/16 14:18:47;;;;;;;226.23;113.65;;;7.90;99.90;;;;;;5096728;28;20563;-87
2021/11/16 14:21:16;;;;;;;126.57;79.03;;;7.80;99.90;;;;;;5095649;28;20178;-87
2021/11/16 14:23:53;;;;;;;100.38;62.40;;;7.80;99.90;;;;;;5095731;28;20897;-87
2021/11/16 14:26:22;;;;;;;92.40;55.00;;;7.80;99.90;;;;;;5097119;28;20606;-87
2021/11/16 14:28:49;;;;;;;88.88;53.00;;;7.80;99.90;;;;;;5096790;28;20565;-87
2021/11/16 14:31:22;;;;;;;91.88;54.83;;;7.90;99.90;;;;;;5096739;28;20156;-87
2021/11/16 14:33:55;;;;;;;88.97;51.80;;;7.80;99.90;;;;;;5096330;28;20197;-87
2021/11/16 14:36:34;;;;;;;89.25;50.28;;;7.70;99.90;;;;;;5094997;28;20159;-87
2021/11/16 14:39:15;;;;;;;88.45;54.30;;;7.80;99.90;;;;;;5096267;28;20273;-87
2021/11/16 14:42:05;;;;;;;92.07;64.00;;;7.80;99.90;;;;;;5095067;28;20167;-87
2021/11/16 14:45:08;;;;;;;96.38;72.45;;;7.80;99.90;;;;;;5095431;28;20178;-87
2021/11/16 14:47:37;;;;;;;94.72;64.60;;;7.80;99.90;;;;;;5093374;28;20567;-87
2021/11/16 14:50:33;;;;;;;91.20;59.53;;;7.80;99.90;;;;;;5094839;28;20198;-87